F/V Guevellezed 2 — FGE8986 — position and weather

sailwx.info

Track history (hours):
 
Tides and Currents Weather Stations Pressure Air Temp Water Temp Dewpoint Dewpoint Depression Visibility Wind Speed Wind Dir Waves Ship Positions

F/V Guevellezed 2

Last reported at 2017-Nov-18 14:45 UTC. Time now 2017-Nov-21 02:55 UTC.
Position N 47°44' W 003°22'.

Length 12 m.

Type: Fishing. MMSI: 227686910.

Date/timePositionNaut miles runAvg speedWind from/ knotsBaromVisibWave heightAir tempDewpointWater temp
2017-Nov-18 14:45N 47°44' W 003°22'0 0.1
2017-Nov-18 14:30N 47°44' W 003°22'4 7.4
2017-Nov-18 14:00N 47°40' W 003°22'4 8.3
2017-Nov-18 13:30N 47°36' W 003°20'5 8.4
2017-Nov-18 12:56N 47°32' W 003°17'3 7.6
2017-Nov-18 12:30N 47°28' W 003°18'5 0.6
2017-Nov-18 04:12N 47°23' W 003°17'2 8.9
2017-Nov-18 04:00N 47°25' W 003°18'4 8.8
2017-Nov-18 03:30N 47°29' W 003°19'4 8.7
2017-Nov-18 03:00N 47°34' W 003°20'4 8.6
2017-Nov-18 02:30N 47°38' W 003°21'4 8.5
2017-Nov-18 02:00N 47°42' W 003°22'2 0.2
2017-Nov-17 15:02N 47°44' W 003°22'0 0.0
2017-Nov-17 14:59N 47°44' W 003°22'1 2.8
2017-Nov-17 14:30N 47°42' W 003°22'4 8.3
2017-Nov-17 14:00N 47°38' W 003°21'4 8.4
2017-Nov-17 13:30N 47°34' W 003°20'4 8.4
2017-Nov-17 13:00N 47°30' W 003°19'4 8.4
2017-Nov-17 12:29N 47°26' W 003°17'2 0.3
2017-Nov-17 04:09N 47°24' W 003°17'1 9.1
2017-Nov-17 04:00N 47°25' W 003°17'4 8.9
2017-Nov-17 03:30N 47°29' W 003°19'4 8.8
2017-Nov-17 03:00N 47°34' W 003°20'4 8.7
2017-Nov-17 02:30N 47°38' W 003°21'4 8.5
2017-Nov-17 02:00N 47°42' W 003°22'2 0.2
2017-Nov-16 17:12N 47°44' W 003°22'0 0.1
2017-Nov-16 16:51N 47°44' W 003°22'2 4.9
2017-Nov-16 16:30N 47°42' W 003°22'4 8.4
2017-Nov-16 16:00N 47°38' W 003°21'4 8.5
2017-Nov-16 15:31N 47°34' W 003°20'4 8.3
2017-Nov-16 15:01N 47°30' W 003°19'5 0.5
2017-Nov-16 04:05N 47°24' W 003°17'1 8.7
2017-Nov-16 03:57N 47°25' W 003°18'4 8.6
2017-Nov-16 03:30N 47°29' W 003°19'4 8.6
2017-Nov-16 03:00N 47°33' W 003°20'4 8.5
2017-Nov-16 02:30N 47°38' W 003°21'4 8.3
2017-Nov-16 01:59N 47°42' W 003°22'2 0.2
2017-Nov-15 16:49N 47°44' W 003°22'0 0.1
2017-Nov-15 16:28N 47°44' W 003°22'1 3.2
2017-Nov-15 16:00N 47°42' W 003°22'4 8.3
2017-Nov-15 15:30N 47°38' W 003°21'4 8.7
2017-Nov-15 15:00N 47°34' W 003°20'4 8.4
2017-Nov-15 14:30N 47°30' W 003°19'4 8.3
2017-Nov-15 14:00N 47°26' W 003°17'2 0.2
2017-Nov-15 04:09N 47°23' W 003°17'2 8.9
2017-Nov-15 03:58N 47°25' W 003°18'4 8.7
2017-Nov-15 03:30N 47°29' W 003°19'4 8.6
2017-Nov-15 03:00N 47°33' W 003°20'4 8.5
2017-Nov-15 02:30N 47°37' W 003°21'4 8.5
2017-Nov-15 02:00N 47°42' W 003°22'2 0.2
2017-Nov-14 15:16N 47°44' W 003°22'0 0.1
2017-Nov-14 14:59N 47°44' W 003°22'2 3.5
2017-Nov-14 14:30N 47°42' W 003°22'4 8.3
2017-Nov-14 14:00N 47°38' W 003°21'4 8.4
2017-Nov-14 13:30N 47°34' W 003°20'4 8.3
2017-Nov-14 13:00N 47°30' W 003°19'4 8.4
2017-Nov-14 12:29N 47°26' W 003°17'2 0.2
2017-Nov-14 04:08N 47°24' W 003°17'1 8.4
2017-Nov-14 03:59N 47°25' W 003°18'4 8.2
2017-Nov-14 03:30N 47°29' W 003°19'4 8.6
2017-Nov-14 03:00N 47°33' W 003°20'4 8.7
2017-Nov-14 02:30N 47°38' W 003°21'4 8.7
2017-Nov-14 02:00N 47°42' W 003°22'0 0.0
2017-Nov-13 02:00N 47°42' W 003°22'  
2017-Nov-10 16:00N 47°44' W 003°22'1 2.7
2017-Nov-10 15:30N 47°42' W 003°22'4 8.0
2017-Nov-10 15:00N 47°38' W 003°22'4 7.9
2017-Nov-10 14:30N 47°35' W 003°20'4 7.8
2017-Nov-10 14:00N 47°31' W 003°19'4 8.0
2017-Nov-10 13:30N 47°27' W 003°18'3 0.3
2017-Nov-10 04:13N 47°24' W 003°17'2 8.1
2017-Nov-10 04:00N 47°26' W 003°18'4 8.1
2017-Nov-10 03:30N 47°30' W 003°19'4 8.0
2017-Nov-10 03:00N 47°34' W 003°20'4 8.3
2017-Nov-10 02:30N 47°38' W 003°21'4 8.4
2017-Nov-10 02:00N 47°42' W 003°22'2 0.2
2017-Nov-09 17:22N 47°44' W 003°22'0 0.0
2017-Nov-09 16:58N 47°44' W 003°22'0 0.1
2017-Nov-09 16:28N 47°44' W 003°22'3 5.8
2017-Nov-09 16:00N 47°41' W 003°22'4 8.2
2017-Nov-09 15:30N 47°37' W 003°21'4 8.3
2017-Nov-09 15:00N 47°33' W 003°20'4 8.5
2017-Nov-09 14:30N 47°29' W 003°18'9 1.2
2017-Nov-09 06:35N 47°20' W 003°17'4 1.8
2017-Nov-09 04:14N 47°24' W 003°18'2 8.2
2017-Nov-09 04:00N 47°26' W 003°18'4 8.3
2017-Nov-09 03:30N 47°30' W 003°19'4 8.4
2017-Nov-09 03:00N 47°34' W 003°20'4 8.5
2017-Nov-09 02:30N 47°38' W 003°22'4 8.6
2017-Nov-09 02:00N 47°42' W 003°22'  
Track history (hours):
 
Tides and Currents Weather Stations Pressure Air Temp Water Temp Dewpoint Dewpoint Depression Visibility Wind Speed Wind Dir Waves Ship Positions

F/V Guevellezed 2

Last reported at 2017-Nov-18 14:45 UTC. Time now 2017-Nov-21 02:55 UTC.
Position N 47°44' W 003°22'.

Length 12 m.

Type: Fishing. MMSI: 227686910.

Date/timePositionNaut miles runAvg speedWind from/ knotsBaromVisibWave heightAir tempDewpointWater temp
2017-Nov-18 14:45N 47°44' W 003°22'0 0.1
2017-Nov-18 14:30N 47°44' W 003°22'4 7.4
2017-Nov-18 14:00N 47°40' W 003°22'4 8.3
2017-Nov-18 13:30N 47°36' W 003°20'5 8.4
2017-Nov-18 12:56N 47°32' W 003°17'3 7.6
2017-Nov-18 12:30N 47°28' W 003°18'5 0.6
2017-Nov-18 04:12N 47°23' W 003°17'2 8.9
2017-Nov-18 04:00N 47°25' W 003°18'4 8.8
2017-Nov-18 03:30N 47°29' W 003°19'4 8.7
2017-Nov-18 03:00N 47°34' W 003°20'4 8.6
2017-Nov-18 02:30N 47°38' W 003°21'4 8.5
2017-Nov-18 02:00N 47°42' W 003°22'2 0.2
2017-Nov-17 15:02N 47°44' W 003°22'0 0.0
2017-Nov-17 14:59N 47°44' W 003°22'1 2.8
2017-Nov-17 14:30N 47°42' W 003°22'4 8.3
2017-Nov-17 14:00N 47°38' W 003°21'4 8.4
2017-Nov-17 13:30N 47°34' W 003°20'4 8.4
2017-Nov-17 13:00N 47°30' W 003°19'4 8.4
2017-Nov-17 12:29N 47°26' W 003°17'2 0.3
2017-Nov-17 04:09N 47°24' W 003°17'1 9.1
2017-Nov-17 04:00N 47°25' W 003°17'4 8.9
2017-Nov-17 03:30N 47°29' W 003°19'4 8.8
2017-Nov-17 03:00N 47°34' W 003°20'4 8.7
2017-Nov-17 02:30N 47°38' W 003°21'4 8.5
2017-Nov-17 02:00N 47°42' W 003°22'2 0.2
2017-Nov-16 17:12N 47°44' W 003°22'0 0.1
2017-Nov-16 16:51N 47°44' W 003°22'2 4.9
2017-Nov-16 16:30N 47°42' W 003°22'4 8.4
2017-Nov-16 16:00N 47°38' W 003°21'4 8.5
2017-Nov-16 15:31N 47°34' W 003°20'4 8.3
2017-Nov-16 15:01N 47°30' W 003°19'5 0.5
2017-Nov-16 04:05N 47°24' W 003°17'1 8.7
2017-Nov-16 03:57N 47°25' W 003°18'4 8.6
2017-Nov-16 03:30N 47°29' W 003°19'4 8.6
2017-Nov-16 03:00N 47°33' W 003°20'4 8.5
2017-Nov-16 02:30N 47°38' W 003°21'4 8.3
2017-Nov-16 01:59N 47°42' W 003°22'2 0.2
2017-Nov-15 16:49N 47°44' W 003°22'0 0.1
2017-Nov-15 16:28N 47°44' W 003°22'1 3.2
2017-Nov-15 16:00N 47°42' W 003°22'4 8.3
2017-Nov-15 15:30N 47°38' W 003°21'4 8.7
2017-Nov-15 15:00N 47°34' W 003°20'4 8.4
2017-Nov-15 14:30N 47°30' W 003°19'4 8.3
2017-Nov-15 14:00N 47°26' W 003°17'2 0.2
2017-Nov-15 04:09N 47°23' W 003°17'2 8.9
2017-Nov-15 03:58N 47°25' W 003°18'4 8.7
2017-Nov-15 03:30N 47°29' W 003°19'4 8.6
2017-Nov-15 03:00N 47°33' W 003°20'4 8.5
2017-Nov-15 02:30N 47°37' W 003°21'4 8.5
2017-Nov-15 02:00N 47°42' W 003°22'2 0.2
2017-Nov-14 15:16N 47°44' W 003°22'0 0.1
2017-Nov-14 14:59N 47°44' W 003°22'2 3.5
2017-Nov-14 14:30N 47°42' W 003°22'4 8.3
2017-Nov-14 14:00N 47°38' W 003°21'4 8.4
2017-Nov-14 13:30N 47°34' W 003°20'4 8.3
2017-Nov-14 13:00N 47°30' W 003°19'4 8.4
2017-Nov-14 12:29N 47°26' W 003°17'2 0.2
2017-Nov-14 04:08N 47°24' W 003°17'1 8.4
2017-Nov-14 03:59N 47°25' W 003°18'4 8.2
2017-Nov-14 03:30N 47°29' W 003°19'4 8.6
2017-Nov-14 03:00N 47°33' W 003°20'4 8.7
2017-Nov-14 02:30N 47°38' W 003°21'4 8.7
2017-Nov-14 02:00N 47°42' W 003°22'0 0.0
2017-Nov-13 02:00N 47°42' W 003°22'  
2017-Nov-10 16:00N 47°44' W 003°22'1 2.7
2017-Nov-10 15:30N 47°42' W 003°22'4 8.0
2017-Nov-10 15:00N 47°38' W 003°22'4 7.9
2017-Nov-10 14:30N 47°35' W 003°20'4 7.8
2017-Nov-10 14:00N 47°31' W 003°19'4 8.0
2017-Nov-10 13:30N 47°27' W 003°18'3 0.3
2017-Nov-10 04:13N 47°24' W 003°17'2 8.1
2017-Nov-10 04:00N 47°26' W 003°18'4 8.1
2017-Nov-10 03:30N 47°30' W 003°19'4 8.0
2017-Nov-10 03:00N 47°34' W 003°20'4 8.3
2017-Nov-10 02:30N 47°38' W 003°21'4 8.4
2017-Nov-10 02:00N 47°42' W 003°22'2 0.2
2017-Nov-09 17:22N 47°44' W 003°22'0 0.0
2017-Nov-09 16:58N 47°44' W 003°22'0 0.1
2017-Nov-09 16:28N 47°44' W 003°22'3 5.8
2017-Nov-09 16:00N 47°41' W 003°22'4 8.2
2017-Nov-09 15:30N 47°37' W 003°21'4 8.3
2017-Nov-09 15:00N 47°33' W 003°20'4 8.5
2017-Nov-09 14:30N 47°29' W 003°18'9 1.2
2017-Nov-09 06:35N 47°20' W 003°17'4 1.8
2017-Nov-09 04:14N 47°24' W 003°18'2 8.2
2017-Nov-09 04:00N 47°26' W 003°18'4 8.3
2017-Nov-09 03:30N 47°30' W 003°19'4 8.4
2017-Nov-09 03:00N 47°34' W 003°20'4 8.5
2017-Nov-09 02:30N 47°38' W 003°22'4 8.6
2017-Nov-09 02:00N 47°42' W 003°22'  

Dump ship's entire track history